sensor_id;sensor_type;location;lat;lon;timestamp;temperature;humidity
12166;DHT22;6146;48.128;11.476;2022-12-29T00:01:50;4.80;99.90
12166;DHT22;6146;48.128;11.476;2022-12-29T00:04:17;4.80;99.90
12166;DHT22;6146;48.128;11.476;2022-12-29T00:06:42;4.80;99.90
12166;DHT22;6146;48.128;11.476;2022-12-29T00:09:08;4.80;99.90
12166;DHT22;6146;48.128;11.476;2022-12-29T00:11:35;4.80;99.90
12166;DHT22;6146;48.128;11.476;2022-12-29T00:14:00;4.80;99.90
12166;DHT22;6146;48.128;11.476;2022-12-29T00:16:45;4.80;99.90
12166;DHT22;6146;48.128;11.476;2022-12-29T00:19:12;4.80;99.90
12166;DHT22;6146;48.128;11.476;2022-12-29T00:21:57;4.80;99.90
12166;DHT22;6146;48.128;11.476;2022-12-29T00:24:42;4.80;99.90
12166;DHT22;6146;48.128;11.476;2022-12-29T00:27:30;4.80;99.90
12166;DHT22;6146;48.128;11.476;2022-12-29T00:30:20;4.80;99.90
12166;DHT22;6146;48.128;11.476;2022-12-29T00:33:11;4.80;99.90
12166;DHT22;6146;48.128;11.476;2022-12-29T00:36:04;3.60;99.90
12166;DHT22;6146;48.128;11.476;2022-12-29T00:38:36;4.90;99.90
12166;DHT22;6146;48.128;11.476;2022-12-29T00:41:21;4.90;99.90
12166;DHT22;6146;48.128;11.476;2022-12-29T00:44:05;4.90;99.90
12166;DHT22;6146;48.128;11.476;2022-12-29T00:46:34;4.90;99.90
12166;DHT22;6146;48.128;11.476;2022-12-29T00:49:00;4.90;99.90
12166;DHT22;6146;48.128;11.476;2022-12-29T00:51:45;4.90;99.90
12166;DHT22;6146;48.128;11.476;2022-12-29T00:54:12;4.90;99.90
12166;DHT22;6146;48.128;11.476;2022-12-29T00:56:38;4.90;99.90
12166;DHT22;6146;48.128;11.476;2022-12-29T00:59:05;4.80;99.90
12166;DHT22;6146;48.128;11.476;2022-12-29T01:01:31;4.90;99.90
12166;DHT22;6146;48.128;11.476;2022-12-29T01:03:57;4.90;99.90
12166;DHT22;6146;48.128;11.476;2022-12-29T01:06:23;4.90;99.90
12166;DHT22;6146;48.128;11.476;2022-12-29T01:08:49;4.90;99.90
12166;DHT22;6146;48.128;11.476;2022-12-29T01:11:33;4.80;99.90
12166;DHT22;6146;48.128;11.476;2022-12-29T01:13:58;4.90;99.90
12166;DHT22;6146;48.128;11.476;2022-12-29T01:16:24;4.80;99.90
12166;DHT22;6146;48.128;11.476;2022-12-29T01:18:49;4.80;99.90
12166;DHT22;6146;48.128;11.476;2022-12-29T01:21:15;4.80;99.90
12166;DHT22;6146;48.128;11.476;2022-12-29T01:23:40;4.80;99.90
12166;DHT22;6146;48.128;11.476;2022-12-29T01:26:11;4.70;99.90
12166;DHT22;6146;48.128;11.476;2022-12-29T01:28:36;4.80;99.90
12166;DHT22;6146;48.128;11.476;2022-12-29T01:31:05;4.80;99.90
12166;DHT22;6146;48.128;11.476;2022-12-29T01:33:31;4.80;99.90
12166;DHT22;6146;48.128;11.476;2022-12-29T01:36:01;4.90;99.90
12166;DHT22;6146;48.128;11.476;2022-12-29T01:38:26;4.90;99.90
12166;DHT22;6146;48.128;11.476;2022-12-29T01:40:52;4.90;99.90
12166;DHT22;6146;48.128;11.476;2022-12-29T01:43:17;5.00;99.90
12166;DHT22;6146;48.128;11.476;2022-12-29T01:45:47;5.00;99.90
12166;DHT22;6146;48.128;11.476;2022-12-29T01:48:15;5.10;99.90
12166;DHT22;6146;48.128;11.476;2022-12-29T01:50:45;5.10;99.90
12166;DHT22;6146;48.128;11.476;2022-12-29T01:53:16;5.10;99.90
12166;DHT22;6146;48.128;11.476;2022-12-29T01:55:53;5.10;99.90
12166;DHT22;6146;48.128;11.476;2022-12-29T01:58:22;5.10;99.90
12166;DHT22;6146;48.128;11.476;2022-12-29T02:00:48;5.10;99.90
12166;DHT22;6146;48.128;11.476;2022-12-29T02:03:15;5.10;99.90
12166;DHT22;6146;48.128;11.476;2022-12-29T02:05:57;5.20;99.90
12166;DHT22;6146;48.128;11.476;2022-12-29T02:08:26;5.20;99.90
12166;DHT22;6146;48.128;11.476;2022-12-29T02:10:53;5.20;99.90
12166;DHT22;6146;48.128;11.476;2022-12-29T02:13:19;5.20;99.90
12166;DHT22;6146;48.128;11.476;2022-12-29T02:19:26;5.20;99.90
12166;DHT22;6146;48.128;11.476;2022-12-29T02:25:18;5.20;99.90
12166;DHT22;6146;48.128;11.476;2022-12-29T02:30:39;5.20;99.90
12166;DHT22;6146;48.128;11.476;2022-12-29T02:33:23;5.30;99.90
12166;DHT22;6146;48.128;11.476;2022-12-29T02:38:43;5.30;99.90
12166;DHT22;6146;48.128;11.476;2022-12-29T02:41:42;5.40;99.90
12166;DHT22;6146;48.128;11.476;2022-12-29T02:47:16;5.50;99.90
12166;DHT22;6146;48.128;11.476;2022-12-29T02:49:52;5.50;99.90
12166;DHT22;6146;48.128;11.476;2022-12-29T02:52:26;5.50;99.90
12166;DHT22;6146;48.128;11.476;2022-12-29T02:54:54;5.60;99.90
12166;DHT22;6146;48.128;11.476;2022-12-29T02:59:52;5.70;99.90
12166;DHT22;6146;48.128;11.476;2022-12-29T03:05:31;5.80;99.90
12166;DHT22;6146;48.128;11.476;2022-12-29T03:10:57;5.90;99.90
12166;DHT22;6146;48.128;11.476;2022-12-29T03:13:46;5.90;99.90
12166;DHT22;6146;48.128;11.476;2022-12-29T03:16:34;5.90;99.90
12166;DHT22;6146;48.128;11.476;2022-12-29T03:21:46;5.90;99.90
12166;DHT22;6146;48.128;11.476;2022-12-29T03:24:38;5.90;99.90
12166;DHT22;6146;48.128;11.476;2022-12-29T03:27:06;6.00;99.90
12166;DHT22;6146;48.128;11.476;2022-12-29T03:29:38;6.10;99.90
12166;DHT22;6146;48.128;11.476;2022-12-29T03:32:05;6.10;99.90
12166;DHT22;6146;48.128;11.476;2022-12-29T03:34:33;6.10;99.90
12166;DHT22;6146;48.128;11.476;2022-12-29T03:37:10;6.10;99.90
12166;DHT22;6146;48.128;11.476;2022-12-29T03:39:37;6.20;99.90
12166;DHT22;6146;48.128;11.476;2022-12-29T03:42:05;6.20;99.90
12166;DHT22;6146;48.128;11.476;2022-12-29T03:44:39;6.30;99.90
12166;DHT22;6146;48.128;11.476;2022-12-29T03:47:05;6.40;99.90
12166;DHT22;6146;48.128;11.476;2022-12-29T03:49:31;6.40;99.90
12166;DHT22;6146;48.128;11.476;2022-12-29T03:51:57;6.50;99.90
12166;DHT22;6146;48.128;11.476;2022-12-29T03:54:22;6.50;99.90
12166;DHT22;6146;48.128;11.476;2022-12-29T03:56:48;6.50;99.90
12166;DHT22;6146;48.128;11.476;2022-12-29T03:59:14;6.50;99.90
12166;DHT22;6146;48.128;11.476;2022-12-29T04:01:40;6.50;99.90
12166;DHT22;6146;48.128;11.476;2022-12-29T04:04:05;6.60;99.90
12166;DHT22;6146;48.128;11.476;2022-12-29T04:06:31;6.50;99.90
12166;DHT22;6146;48.128;11.476;2022-12-29T04:08:56;6.60;99.90
12166;DHT22;6146;48.128;11.476;2022-12-29T04:11:23;6.50;99.90
12166;DHT22;6146;48.128;11.476;2022-12-29T04:13:48;6.50;99.90
12166;DHT22;6146;48.128;11.476;2022-12-29T04:16:14;6.60;99.90
12166;DHT22;6146;48.128;11.476;2022-12-29T04:18:40;6.60;99.90
12166;DHT22;6146;48.128;11.476;2022-12-29T04:21:05;6.70;99.90
12166;DHT22;6146;48.128;11.476;2022-12-29T04:23:33;6.60;99.90
12166;DHT22;6146;48.128;11.476;2022-12-29T04:26:00;6.70;99.90
12166;DHT22;6146;48.128;11.476;2022-12-29T04:28:26;6.70;99.90
12166;DHT22;6146;48.128;11.476;2022-12-29T04:30:51;6.80;99.90
12166;DHT22;6146;48.128;11.476;2022-12-29T04:33:17;6.80;99.90
12166;DHT22;6146;48.128;11.476;2022-12-29T04:35:43;6.80;99.90
12166;DHT22;6146;48.128;11.476;2022-12-29T04:38:09;6.80;99.90
12166;DHT22;6146;48.128;11.476;2022-12-29T04:40:35;6.80;99.90
12166;DHT22;6146;48.128;11.476;2022-12-29T04:43:02;6.80;99.90
12166;DHT22;6146;48.128;11.476;2022-12-29T04:45:28;6.80;99.90
12166;DHT22;6146;48.128;11.476;2022-12-29T04:47:54;6.80;99.90
12166;DHT22;6146;48.128;11.476;2022-12-29T04:50:19;6.80;99.90
12166;DHT22;6146;48.128;11.476;2022-12-29T04:52:45;6.80;99.90
12166;DHT22;6146;48.128;11.476;2022-12-29T04:55:10;6.80;99.90
12166;DHT22;6146;48.128;11.476;2022-12-29T04:57:36;6.80;99.90
12166;DHT22;6146;48.128;11.476;2022-12-29T05:00:03;6.80;99.90
12166;DHT22;6146;48.128;11.476;2022-12-29T05:02:29;6.90;99.90
12166;DHT22;6146;48.128;11.476;2022-12-29T05:04:54;6.90;99.90
12166;DHT22;6146;48.128;11.476;2022-12-29T05:07:20;6.90;99.90
12166;DHT22;6146;48.128;11.476;2022-12-29T05:09:45;6.90;99.90
12166;DHT22;6146;48.128;11.476;2022-12-29T05:12:11;6.90;99.90
12166;DHT22;6146;48.128;11.476;2022-12-29T05:14:37;6.90;99.90
12166;DHT22;6146;48.128;11.476;2022-12-29T05:17:02;6.90;99.90
12166;DHT22;6146;48.128;11.476;2022-12-29T05:19:28;6.90;99.90
12166;DHT22;6146;48.128;11.476;2022-12-29T05:21:53;7.00;99.90
12166;DHT22;6146;48.128;11.476;2022-12-29T05:24:19;7.00;99.90
12166;DHT22;6146;48.128;11.476;2022-12-29T05:26:45;7.00;99.90
12166;DHT22;6146;48.128;11.476;2022-12-29T05:29:11;7.00;99.90
12166;DHT22;6146;48.128;11.476;2022-12-29T05:31:36;7.10;99.90
12166;DHT22;6146;48.128;11.476;2022-12-29T05:34:02;7.10;99.90
12166;DHT22;6146;48.128;11.476;2022-12-29T05:36:28;7.20;99.90
12166;DHT22;6146;48.128;11.476;2022-12-29T05:38:54;7.20;99.90
12166;DHT22;6146;48.128;11.476;2022-12-29T05:41:19;7.20;99.90
12166;DHT22;6146;48.128;11.476;2022-12-29T05:43:45;7.20;99.90
12166;DHT22;6146;48.128;11.476;2022-12-29T05:46:11;7.30;99.90
12166;DHT22;6146;48.128;11.476;2022-12-29T05:48:36;7.30;99.90
12166;DHT22;6146;48.128;11.476;2022-12-29T05:51:02;7.30;99.90
12166;DHT22;6146;48.128;11.476;2022-12-29T05:53:27;7.30;99.90
12166;DHT22;6146;48.128;11.476;2022-12-29T05:55:53;7.30;99.90
12166;DHT22;6146;48.128;11.476;2022-12-29T05:58:18;7.30;99.90
12166;DHT22;6146;48.128;11.476;2022-12-29T06:00:44;7.20;99.90
12166;DHT22;6146;48.128;11.476;2022-12-29T06:03:10;7.20;99.90
12166;DHT22;6146;48.128;11.476;2022-12-29T06:05:35;7.10;99.90
12166;DHT22;6146;48.128;11.476;2022-12-29T06:08:01;7.30;99.90
12166;DHT22;6146;48.128;11.476;2022-12-29T06:10:26;7.30;99.90
12166;DHT22;6146;48.128;11.476;2022-12-29T06:12:52;7.30;99.90
12166;DHT22;6146;48.128;11.476;2022-12-29T06:15:18;7.40;99.90
12166;DHT22;6146;48.128;11.476;2022-12-29T06:17:44;7.40;99.90
12166;DHT22;6146;48.128;11.476;2022-12-29T06:20:10;7.40;99.90
12166;DHT22;6146;48.128;11.476;2022-12-29T06:22:35;7.40;99.90
12166;DHT22;6146;48.128;11.476;2022-12-29T06:25:01;7.40;99.90
12166;DHT22;6146;48.128;11.476;2022-12-29T06:27:27;7.40;99.90
12166;DHT22;6146;48.128;11.476;2022-12-29T06:29:53;7.50;99.90
12166;DHT22;6146;48.128;11.476;2022-12-29T06:32:19;7.50;99.90
12166;DHT22;6146;48.128;11.476;2022-12-29T06:34:44;7.50;99.90
12166;DHT22;6146;48.128;11.476;2022-12-29T06:37:11;7.50;99.90
12166;DHT22;6146;48.128;11.476;2022-12-29T06:39:36;7.50;99.90
12166;DHT22;6146;48.128;11.476;2022-12-29T06:42:02;7.40;99.90
12166;DHT22;6146;48.128;11.476;2022-12-29T06:44:28;7.40;99.90
12166;DHT22;6146;48.128;11.476;2022-12-29T06:46:54;7.40;99.90
12166;DHT22;6146;48.128;11.476;2022-12-29T06:49:19;7.30;99.90
12166;DHT22;6146;48.128;11.476;2022-12-29T06:51:45;7.30;99.90
12166;DHT22;6146;48.128;11.476;2022-12-29T06:54:11;7.20;99.90
12166;DHT22;6146;48.128;11.476;2022-12-29T06:56:36;7.20;99.90
12166;DHT22;6146;48.128;11.476;2022-12-29T06:59:02;7.30;99.90
12166;DHT22;6146;48.128;11.476;2022-12-29T07:01:28;7.20;99.90
12166;DHT22;6146;48.128;11.476;2022-12-29T07:03:54;7.20;99.90
12166;DHT22;6146;48.128;11.476;2022-12-29T07:06:20;7.20;99.90
12166;DHT22;6146;48.128;11.476;2022-12-29T07:08:46;7.20;99.90
12166;DHT22;6146;48.128;11.476;2022-12-29T07:11:11;7.20;99.90
12166;DHT22;6146;48.128;11.476;2022-12-29T07:13:37;7.20;99.90
12166;DHT22;6146;48.128;11.476;2022-12-29T07:16:07;7.20;99.90
12166;DHT22;6146;48.128;11.476;2022-12-29T07:18:32;7.20;99.90
12166;DHT22;6146;48.128;11.476;2022-12-29T07:20:58;7.30;99.90
12166;DHT22;6146;48.128;11.476;2022-12-29T07:23:24;7.30;99.90
12166;DHT22;6146;48.128;11.476;2022-12-29T07:25:49;7.30;99.90
12166;DHT22;6146;48.128;11.476;2022-12-29T07:28:15;7.30;99.90
12166;DHT22;6146;48.128;11.476;2022-12-29T07:30:40;7.30;99.90
12166;DHT22;6146;48.128;11.476;2022-12-29T07:33:06;7.30;99.90
12166;DHT22;6146;48.128;11.476;2022-12-29T07:35:33;7.30;99.90
12166;DHT22;6146;48.128;11.476;2022-12-29T07:37:59;7.30;99.90
12166;DHT22;6146;48.128;11.476;2022-12-29T07:40:25;7.40;99.90
12166;DHT22;6146;48.128;11.476;2022-12-29T07:42:51;7.50;99.90
12166;DHT22;6146;48.128;11.476;2022-12-29T07:45:16;7.60;99.90
12166;DHT22;6146;48.128;11.476;2022-12-29T07:47:42;7.70;99.60
12166;DHT22;6146;48.128;11.476;2022-12-29T07:50:07;7.80;99.20
12166;DHT22;6146;48.128;11.476;2022-12-29T07:52:33;8.00;98.90
12166;DHT22;6146;48.128;11.476;2022-12-29T07:54:58;8.10;98.50
12166;DHT22;6146;48.128;11.476;2022-12-29T07:57:24;8.50;97.80
12166;DHT22;6146;48.128;11.476;2022-12-29T07:59:49;8.90;96.90
12166;DHT22;6146;48.128;11.476;2022-12-29T08:02:15;9.60;95.60
12166;DHT22;6146;48.128;11.476;2022-12-29T08:04:40;10.60;94.50
12166;DHT22;6146;48.128;11.476;2022-12-29T08:07:06;11.70;91.70
12166;DHT22;6146;48.128;11.476;2022-12-29T08:09:32;12.60;89.00
12166;DHT22;6146;48.128;11.476;2022-12-29T08:11:57;13.20;83.30
12166;DHT22;6146;48.128;11.476;2022-12-29T08:14:23;13.70;80.00
12166;DHT22;6146;48.128;11.476;2022-12-29T08:16:49;14.00;76.00
12166;DHT22;6146;48.128;11.476;2022-12-29T08:19:14;14.30;74.20
12166;DHT22;6146;48.128;11.476;2022-12-29T08:21:40;14.30;72.50
12166;DHT22;6146;48.128;11.476;2022-12-29T08:24:08;14.20;71.90
12166;DHT22;6146;48.128;11.476;2022-12-29T08:26:34;14.10;69.80
12166;DHT22;6146;48.128;11.476;2022-12-29T08:28:59;13.60;71.20
12166;DHT22;6146;48.128;11.476;2022-12-29T08:31:25;13.50;73.00
12166;DHT22;6146;48.128;11.476;2022-12-29T08:33:51;13.50;71.90
12166;DHT22;6146;48.128;11.476;2022-12-29T08:36:16;13.60;71.10
12166;DHT22;6146;48.128;11.476;2022-12-29T08:38:42;13.80;70.20
12166;DHT22;6146;48.128;11.476;2022-12-29T08:41:07;14.20;68.50
12166;DHT22;6146;48.128;11.476;2022-12-29T08:43:33;14.60;67.20
12166;DHT22;6146;48.128;11.476;2022-12-29T08:45:59;15.10;65.90
12166;DHT22;6146;48.128;11.476;2022-12-29T08:48:25;15.40;64.10
12166;DHT22;6146;48.128;11.476;2022-12-29T08:50:51;15.00;64.00
12166;DHT22;6146;48.128;11.476;2022-12-29T08:53:17;14.90;65.20
12166;DHT22;6146;48.128;11.476;2022-12-29T08:55:45;15.00;63.70
12166;DHT22;6146;48.128;11.476;2022-12-29T08:58:11;14.90;64.10
12166;DHT22;6146;48.128;11.476;2022-12-29T09:00:40;14.80;64.40
12166;DHT22;6146;48.128;11.476;2022-12-29T09:03:06;15.10;62.90
12166;DHT22;6146;48.128;11.476;2022-12-29T09:05:31;15.40;62.50
12166;DHT22;6146;48.128;11.476;2022-12-29T09:07:57;15.80;61.10
12166;DHT22;6146;48.128;11.476;2022-12-29T09:10:23;16.60;60.20
12166;DHT22;6146;48.128;11.476;2022-12-29T09:12:48;17.30;57.20
12166;DHT22;6146;48.128;11.476;2022-12-29T09:15:14;17.30;55.70
12166;DHT22;6146;48.128;11.476;2022-12-29T09:17:41;17.00;55.00
12166;DHT22;6146;48.128;11.476;2022-12-29T09:20:11;16.90;55.20
12166;DHT22;6146;48.128;11.476;2022-12-29T09:22:36;16.70;54.60
12166;DHT22;6146;48.128;11.476;2022-12-29T09:25:03;16.80;55.10
12166;DHT22;6146;48.128;11.476;2022-12-29T09:27:28;16.90;54.00
12166;DHT22;6146;48.128;11.476;2022-12-29T09:29:55;16.30;54.70
12166;DHT22;6146;48.128;11.476;2022-12-29T09:32:21;15.70;56.30
12166;DHT22;6146;48.128;11.476;2022-12-29T09:34:47;15.20;56.90
12166;DHT22;6146;48.128;11.476;2022-12-29T09:37:12;15.20;56.90
12166;DHT22;6146;48.128;11.476;2022-12-29T09:39:38;15.80;56.60
12166;DHT22;6146;48.128;11.476;2022-12-29T09:45:15;15.20;56.70
12166;DHT22;6146;48.128;11.476;2022-12-29T09:47:44;14.50;57.70
12166;DHT22;6146;48.128;11.476;2022-12-29T09:50:27;13.70;59.10
12166;DHT22;6146;48.128;11.476;2022-12-29T09:53:07;13.20;60.50
12166;DHT22;6146;48.128;11.476;2022-12-29T09:55:45;13.00;62.00
12166;DHT22;6146;48.128;11.476;2022-12-29T09:58:23;12.80;62.60
12166;DHT22;6146;48.128;11.476;2022-12-29T10:01:00;12.50;63.60
12166;DHT22;6146;48.128;11.476;2022-12-29T10:04:05;12.30;65.60
12166;DHT22;6146;48.128;11.476;2022-12-29T10:09:22;12.10;65.10
12166;DHT22;6146;48.128;11.476;2022-12-29T10:12:11;12.00;64.20
12166;DHT22;6146;48.128;11.476;2022-12-29T10:25:32;12.10;65.00
12166;DHT22;6146;48.128;11.476;2022-12-29T10:28:04;12.10;63.80
12166;DHT22;6146;48.128;11.476;2022-12-29T10:30:33;12.20;64.40
12166;DHT22;6146;48.128;11.476;2022-12-29T10:33:04;12.20;65.30
12166;DHT22;6146;48.128;11.476;2022-12-29T10:35:34;12.30;64.90
12166;DHT22;6146;48.128;11.476;2022-12-29T10:40:51;12.70;64.50
12166;DHT22;6146;48.128;11.476;2022-12-29T10:43:29;12.90;64.00
12166;DHT22;6146;48.128;11.476;2022-12-29T10:46:04;13.20;63.60
12166;DHT22;6146;48.128;11.476;2022-12-29T10:48:32;13.50;62.60
12166;DHT22;6146;48.128;11.476;2022-12-29T10:51:01;13.70;62.50
12166;DHT22;6146;48.128;11.476;2022-12-29T10:53:33;13.70;61.60
12166;DHT22;6146;48.128;11.476;2022-12-29T10:56:01;14.00;60.90
12166;DHT22;6146;48.128;11.476;2022-12-29T10:58:29;14.20;60.40
12166;DHT22;6146;48.128;11.476;2022-12-29T11:00:57;14.70;59.00
12166;DHT22;6146;48.128;11.476;2022-12-29T11:06:11;15.70;57.70
12166;DHT22;6146;48.128;11.476;2022-12-29T11:09:28;16.30;55.70
12166;DHT22;6146;48.128;11.476;2022-12-29T11:11:36;16.80;54.60
12166;DHT22;6146;48.128;11.476;2022-12-29T11:14:13;17.60;52.20
12166;DHT22;6146;48.128;11.476;2022-12-29T11:16:40;17.70;53.20
12166;DHT22;6146;48.128;11.476;2022-12-29T11:19:23;18.50;51.90
12166;DHT22;6146;48.128;11.476;2022-12-29T11:21:49;19.20;49.60
12166;DHT22;6146;48.128;11.476;2022-12-29T11:24:33;20.10;49.10
12166;DHT22;6146;48.128;11.476;2022-12-29T11:27:16;21.20;45.20
12166;DHT22;6146;48.128;11.476;2022-12-29T11:29:44;22.00;43.50
12166;DHT22;6146;48.128;11.476;2022-12-29T11:32:12;21.80;41.70
12166;DHT22;6146;48.128;11.476;2022-12-29T11:34:38;20.90;42.50
12166;DHT22;6146;48.128;11.476;2022-12-29T11:37:22;20.40;42.80
12166;DHT22;6146;48.128;11.476;2022-12-29T11:42:20;20.50;44.20
12166;DHT22;6146;48.128;11.476;2022-12-29T11:44:49;20.60;42.10
12166;DHT22;6146;48.128;11.476;2022-12-29T11:47:28;19.80;43.90
12166;DHT22;6146;48.128;11.476;2022-12-29T11:50:05;19.50;44.60
12166;DHT22;6146;48.128;11.476;2022-12-29T11:52:35;20.70;42.70
12166;DHT22;6146;48.128;11.476;2022-12-29T11:55:03;21.60;40.90
12166;DHT22;6146;48.128;11.476;2022-12-29T11:57:32;21.90;39.60
12166;DHT22;6146;48.128;11.476;2022-12-29T12:00:01;22.40;39.80
12166;DHT22;6146;48.128;11.476;2022-12-29T12:02:30;23.10;37.90
12166;DHT22;6146;48.128;11.476;2022-12-29T12:07:47;24.00;35.10
12166;DHT22;6146;48.128;11.476;2022-12-29T12:10:23;23.80;35.80
12166;DHT22;6146;48.128;11.476;2022-12-29T12:13:02;24.10;35.80
12166;DHT22;6146;48.128;11.476;2022-12-29T12:15:41;24.10;34.30
12166;DHT22;6146;48.128;11.476;2022-12-29T12:18:30;24.60;33.60
12166;DHT22;6146;48.128;11.476;2022-12-29T12:21:05;25.10;34.00
12166;DHT22;6146;48.128;11.476;2022-12-29T12:26:23;25.40;32.80
12166;DHT22;6146;48.128;11.476;2022-12-29T12:29:00;24.50;34.10
12166;DHT22;6146;48.128;11.476;2022-12-29T12:31:49;23.90;34.90
12166;DHT22;6146;48.128;11.476;2022-12-29T12:34:27;24.00;34.90
12166;DHT22;6146;48.128;11.476;2022-12-29T12:42:28;23.60;37.30
12166;DHT22;6146;48.128;11.476;2022-12-29T12:48:02;23.20;37.90
12166;DHT22;6146;48.128;11.476;2022-12-29T12:53:04;20.20;43.20
12166;DHT22;6146;48.128;11.476;2022-12-29T12:55:47;18.70;46.20
12166;DHT22;6146;48.128;11.476;2022-12-29T13:04:26;16.70;52.30
12166;DHT22;6146;48.128;11.476;2022-12-29T13:24:35;14.70;59.20
12166;DHT22;6146;48.128;11.476;2022-12-29T13:27:13;14.60;60.00
12166;DHT22;6146;48.128;11.476;2022-12-29T13:30:04;14.50;60.80
12166;DHT22;6146;48.128;11.476;2022-12-29T13:37:58;14.30;62.90
12166;DHT22;6146;48.128;11.476;2022-12-29T13:40:26;14.30;63.60
12166;DHT22;6146;48.128;11.476;2022-12-29T13:42:55;14.30;64.10
12166;DHT22;6146;48.128;11.476;2022-12-29T13:45:24;14.30;64.40
12166;DHT22;6146;48.128;11.476;2022-12-29T13:48:02;14.10;65.30
12166;DHT22;6146;48.128;11.476;2022-12-29T13:50:34;14.10;64.80
12166;DHT22;6146;48.128;11.476;2022-12-29T13:53:13;14.00;66.40
12166;DHT22;6146;48.128;11.476;2022-12-29T13:55:50;14.00;66.70
12166;DHT22;6146;48.128;11.476;2022-12-29T13:58:27;12.80;66.50
12166;DHT22;6146;48.128;11.476;2022-12-29T14:06:21;13.60;70.00
12166;DHT22;6146;48.128;11.476;2022-12-29T14:08:48;13.60;70.60
12166;DHT22;6146;48.128;11.476;2022-12-29T14:11:17;13.50;70.90
12166;DHT22;6146;48.128;11.476;2022-12-29T14:13:44;13.40;71.30
12166;DHT22;6146;48.128;11.476;2022-12-29T14:16:32;13.40;72.90
12166;DHT22;6146;48.128;11.476;2022-12-29T14:19:15;13.30;72.20
12166;DHT22;6146;48.128;11.476;2022-12-29T14:21:51;13.30;72.90
12166;DHT22;6146;48.128;11.476;2022-12-29T14:34:47;13.10;75.90
12166;DHT22;6146;48.128;11.476;2022-12-29T14:37:23;13.00;76.20
12166;DHT22;6146;48.128;11.476;2022-12-29T14:39:49;13.00;74.10
12166;DHT22;6146;48.128;11.476;2022-12-29T14:42:29;12.90;73.60
12166;DHT22;6146;48.128;11.476;2022-12-29T14:45:26;12.80;72.40
12166;DHT22;6146;48.128;11.476;2022-12-29T14:47:52;12.70;71.80
12166;DHT22;6146;48.128;11.476;2022-12-29T14:53:04;12.50;72.70
12166;DHT22;6146;48.128;11.476;2022-12-29T14:55:44;12.40;72.80
12166;DHT22;6146;48.128;11.476;2022-12-29T15:00:42;12.30;71.70
12166;DHT22;6146;48.128;11.476;2022-12-29T15:03:43;12.30;71.40
12166;DHT22;6146;48.128;11.476;2022-12-29T15:06:13;12.20;71.50
12166;DHT22;6146;48.128;11.476;2022-12-29T15:08:52;12.10;71.50
12166;DHT22;6146;48.128;11.476;2022-12-29T15:11:24;12.00;71.10
12166;DHT22;6146;48.128;11.476;2022-12-29T15:13:50;11.90;71.40
12166;DHT22;6146;48.128;11.476;2022-12-29T15:16:30;11.80;71.80
12166;DHT22;6146;48.128;11.476;2022-12-29T15:18:57;11.70;71.20
12166;DHT22;6146;48.128;11.476;2022-12-29T15:21:26;11.60;71.10
12166;DHT22;6146;48.128;11.476;2022-12-29T15:23:52;11.30;71.40
12166;DHT22;6146;48.128;11.476;2022-12-29T15:26:18;11.30;71.70
12166;DHT22;6146;48.128;11.476;2022-12-29T15:28:52;11.20;71.90
12166;DHT22;6146;48.128;11.476;2022-12-29T15:31:21;11.10;73.10
12166;DHT22;6146;48.128;11.476;2022-12-29T15:33:50;11.00;73.40
12166;DHT22;6146;48.128;11.476;2022-12-29T15:36:21;10.90;73.70
12166;DHT22;6146;48.128;11.476;2022-12-29T15:38:47;10.80;73.60
12166;DHT22;6146;48.128;11.476;2022-12-29T15:41:31;10.70;73.60
12166;DHT22;6146;48.128;11.476;2022-12-29T15:44:14;10.70;74.20
12166;DHT22;6146;48.128;11.476;2022-12-29T15:46:42;10.60;74.60
12166;DHT22;6146;48.128;11.476;2022-12-29T15:49:08;10.50;75.10
12166;DHT22;6146;48.128;11.476;2022-12-29T15:51:37;10.40;75.60
12166;DHT22;6146;48.128;11.476;2022-12-29T15:54:03;10.40;75.70
12166;DHT22;6146;48.128;11.476;2022-12-29T15:56:30;10.30;76.20
12166;DHT22;6146;48.128;11.476;2022-12-29T15:58:56;10.30;76.50
12166;DHT22;6146;48.128;11.476;2022-12-29T16:01:31;10.20;77.10
12166;DHT22;6146;48.128;11.476;2022-12-29T16:03:59;10.20;77.20
12166;DHT22;6146;48.128;11.476;2022-12-29T16:09:59;10.10;78.90
12166;DHT22;6146;48.128;11.476;2022-12-29T16:11:55;10.10;79.20
12166;DHT22;6146;48.128;11.476;2022-12-29T16:14:39;10.00;79.30
12166;DHT22;6146;48.128;11.476;2022-12-29T16:17:06;10.00;79.40
12166;DHT22;6146;48.128;11.476;2022-12-29T16:19:39;10.00;80.30
12166;DHT22;6146;48.128;11.476;2022-12-29T16:22:11;9.90;80.90
12166;DHT22;6146;48.128;11.476;2022-12-29T16:24:39;9.90;83.70
12166;DHT22;6146;48.128;11.476;2022-12-29T16:27:09;9.90;87.10
12166;DHT22;6146;48.128;11.476;2022-12-29T16:29:35;10.00;88.00
12166;DHT22;6146;48.128;11.476;2022-12-29T16:32:01;10.10;88.90
12166;DHT22;6146;48.128;11.476;2022-12-29T16:34:42;10.10;89.30
12166;DHT22;6146;48.128;11.476;2022-12-29T16:37:28;10.20;89.90
12166;DHT22;6146;48.128;11.476;2022-12-29T16:39:54;10.20;90.40
12166;DHT22;6146;48.128;11.476;2022-12-29T16:42:45;10.30;90.60
12166;DHT22;6146;48.128;11.476;2022-12-29T16:50:37;10.30;92.00
12166;DHT22;6146;48.128;11.476;2022-12-29T16:53:04;10.30;92.70
12166;DHT22;6146;48.128;11.476;2022-12-29T16:55:30;10.40;93.10
12166;DHT22;6146;48.128;11.476;2022-12-29T16:57:57;10.40;93.80
12166;DHT22;6146;48.128;11.476;2022-12-29T17:00:26;10.50;93.80
12166;DHT22;6146;48.128;11.476;2022-12-29T17:02:56;10.40;93.90
12166;DHT22;6146;48.128;11.476;2022-12-29T17:05:23;10.30;92.10
12166;DHT22;6146;48.128;11.476;2022-12-29T17:07:49;10.10;91.60
12166;DHT22;6146;48.128;11.476;2022-12-29T17:10:16;10.00;91.80
12166;DHT22;6146;48.128;11.476;2022-12-29T17:12:43;9.80;91.90
12166;DHT22;6146;48.128;11.476;2022-12-29T17:17:43;9.70;92.30
12166;DHT22;6146;48.128;11.476;2022-12-29T17:20:30;9.70;92.50
12166;DHT22;6146;48.128;11.476;2022-12-29T17:22:56;9.60;92.90
12166;DHT22;6146;48.128;11.476;2022-12-29T17:25:32;9.60;93.20
12166;DHT22;6146;48.128;11.476;2022-12-29T17:28:00;9.50;93.70
12166;DHT22;6146;48.128;11.476;2022-12-29T17:30:28;9.50;93.90
12166;DHT22;6146;48.128;11.476;2022-12-29T17:33:02;9.40;94.10
12166;DHT22;6146;48.128;11.476;2022-12-29T17:35:28;9.40;94.10
12166;DHT22;6146;48.128;11.476;2022-12-29T17:37:54;9.40;94.30
12166;DHT22;6146;48.128;11.476;2022-12-29T17:40:31;9.40;94.70
12166;DHT22;6146;48.128;11.476;2022-12-29T17:42:58;9.40;95.00
12166;DHT22;6146;48.128;11.476;2022-12-29T17:45:26;9.30;95.10
12166;DHT22;6146;48.128;11.476;2022-12-29T17:47:53;9.40;95.50
12166;DHT22;6146;48.128;11.476;2022-12-29T17:50:21;9.40;95.90
12166;DHT22;6146;48.128;11.476;2022-12-29T17:52:54;9.40;96.30
12166;DHT22;6146;48.128;11.476;2022-12-29T17:55:22;9.40;96.60
12166;DHT22;6146;48.128;11.476;2022-12-29T17:57:48;9.40;97.00
12166;DHT22;6146;48.128;11.476;2022-12-29T18:00:26;9.40;97.30
12166;DHT22;6146;48.128;11.476;2022-12-29T18:02:52;9.40;97.70
12166;DHT22;6146;48.128;11.476;2022-12-29T18:05:28;9.40;97.70
12166;DHT22;6146;48.128;11.476;2022-12-29T18:07:56;9.40;97.80